This is the latest recevied weather packets stored in our database for station/object EA1FLU-10. If no packets are shown the sender has not sent any weather packets the latest 10 day(s).
| Time | Temp. | Humidity | Pressure | Rain* | Wind** | Luminosity | Snow |
|---|---|---|---|---|---|---|---|
| 1777918545 | 21.11° C | 42% | 1017.5 hPa | - | - | - | - |
| 1777916746 | 21.67° C | 41% | 1017.1 hPa | - | - | - | - |
| 1777914946 | 22.22° C | 36% | 1016.9 hPa | - | - | - | - |
| 1777913156 | 22.78° C | 35% | 1016.9 hPa | - | - | - | - |
| 1777913149 | 22.78° C | 35% | 1016.9 hPa | - | - | - | - |
| 1777911346 | 23.33° C | 36% | 1016.7 hPa | - | - | - | - |
| 1777909545 | 23.89° C | 35% | 1016.8 hPa | - | - | - | - |
| 1777907745 | 24.44° C | 35% | 1016.7 hPa | - | - | - | - |
| 1777905945 | 24.44° C | 39% | 1016.6 hPa | - | - | - | - |
| 1777904146 | 23.33° C | 37% | 1016.7 hPa | - | - | - | - |
| 1777902345 | 23.33° C | 37% | 1016.9 hPa | - | - | - | - |
| 1777900546 | 23.33° C | 37% | 1017 hPa | - | - | - | - |
| 1777898746 | 22.78° C | 37% | 1017.2 hPa | - | - | - | - |
| 1777896946 | 23.33° C | 38% | 1017.3 hPa | - | - | - | - |
| 1777895145 | 23.33° C | 37% | 1017.4 hPa | - | - | - | - |
| 1777893345 | 22.78° C | 39% | 1017.8 hPa | - | - | - | - |
| 1777891545 | 21.67° C | 41% | 1018 hPa | - | - | - | - |
| 1777889746 | 22.22° C | 41% | 1018 hPa | - | - | - | - |
| 1777887945 | 20.56° C | 45% | 1018.1 hPa | - | - | - | - |
| 1777886145 | 18.89° C | 48% | 1018.1 hPa | - | - | - | - |
| 1777884345 | 19.44° C | 49% | 1018.2 hPa | - | - | - | - |
| 1777882545 | 19.44° C | 48% | 1018.1 hPa | - | - | - | - |
| 1777880745 | 18.33° C | 50% | 1017.9 hPa | - | - | - | - |
| 1777878946 | 17.78° C | 53% | 1018 hPa | - | - | - | - |
| 1777877146 | 17.22° C | 53% | 1018.1 hPa | - | - | - | - |
* Rain since midnight (hover to see other rain measurements)
** Current wind speed in m/s (hover to see current wind gust speed)